Time;durP1;ratioP1;P1;durP2;ratioP2;P2;SDS_P1;SDS_P2;PMS_P1;PMS_P2;Temp;Humidity;BMP_temperature;BMP_pressure;BME280_temperature;BME280_humidity;BME280_pressure;Samples;Min_cycle;Max_cycle;Signal;HPM_P1;HPM_P2
2022/03/24 00:00:39;;;;;;;49.65;36.05;;;6.80;99.90;;;;;;4961776;28;20042;-75
2022/03/24 00:03:06;;;;;;;54.05;38.03;;;6.70;99.90;;;;;;4993604;28;20058;-75
2022/03/24 00:05:33;;;;;;;57.78;38.30;;;6.70;99.90;;;;;;4950087;28;143873;-75
2022/03/24 00:07:59;;;;;;;57.17;40.22;;;6.60;99.90;;;;;;4986140;28;20410;-75
2022/03/24 00:10:26;;;;;;;56.00;38.22;;;6.60;99.90;;;;;;4961845;28;185632;-75
2022/03/24 00:12:52;;;;;;;59.95;39.35;;;6.60;99.90;;;;;;4981523;28;20056;-75
2022/03/24 00:15:19;;;;;;;55.17;37.65;;;6.50;99.90;;;;;;4969738;28;123445;-75
2022/03/24 00:17:45;;;;;;;58.92;40.38;;;6.50;99.90;;;;;;5007052;28;20061;-75
2022/03/24 00:20:14;;;;;;;59.28;40.47;;;6.40;99.90;;;;;;4953346;28;185320;-75
2022/03/24 00:22:41;;;;;;;56.38;39.83;;;6.30;99.90;;;;;;4998991;28;20045;-75
2022/03/24 00:25:07;;;;;;;56.55;41.28;;;6.30;99.90;;;;;;4963100;28;166039;-75
2022/03/24 00:27:34;;;;;;;61.28;42.38;;;6.30;99.90;;;;;;4998563;28;20054;-75
2022/03/24 00:30:00;;;;;;;58.95;41.63;;;6.30;99.90;;;;;;4977255;28;267509;-75
2022/03/24 00:32:26;;;;;;;57.08;39.47;;;6.20;99.90;;;;;;5017450;28;20058;-75
2022/03/24 00:34:52;;;;;;;59.80;40.30;;;6.20;99.90;;;;;;4977653;28;110342;-75
2022/03/24 00:37:19;;;;;;;57.50;38.63;;;6.20;99.90;;;;;;4991482;28;20069;-75
2022/03/24 00:39:45;;;;;;;63.90;43.67;;;6.10;99.90;;;;;;4962851;28;103365;-74
2022/03/24 00:42:11;;;;;;;59.35;42.78;;;6.10;99.90;;;;;;5002752;28;20057;-75
2022/03/24 00:44:42;;;;;;;62.50;43.38;;;6.10;99.90;;;;;;4967232;28;266700;-74
2022/03/24 00:47:10;;;;;;;61.10;41.73;;;6.00;99.90;;;;;;4986149;28;20058;-75
2022/03/24 00:49:37;;;;;;;62.38;42.70;;;6.00;99.90;;;;;;4959065;28;278009;-74
2022/03/24 00:52:05;;;;;;;57.35;41.28;;;6.00;99.90;;;;;;4999462;28;20053;-75
2022/03/24 00:54:31;;;;;;;64.07;41.72;;;5.90;99.90;;;;;;4966148;28;261890;-74
2022/03/24 00:56:57;;;;;;;54.75;39.40;;;5.90;99.90;;;;;;4999044;28;20530;-75
2022/03/24 00:59:23;;;;;;;59.90;42.42;;;5.90;99.90;;;;;;4969068;28;110368;-75
2022/03/24 01:01:50;;;;;;;61.53;41.13;;;5.80;99.90;;;;;;5021671;28;20046;-75
2022/03/24 01:04:16;;;;;;;58.75;41.25;;;5.80;99.90;;;;;;4992856;28;144355;-75
2022/03/24 01:06:43;;;;;;;60.90;42.75;;;5.80;99.90;;;;;;4965944;28;20064;-75
2022/03/24 01:09:09;;;;;;;63.13;43.80;;;5.70;99.90;;;;;;4994157;28;259451;-74
2022/03/24 01:11:35;;;;;;;68.85;44.35;;;5.70;99.90;;;;;;4971709;28;20038;-75
2022/03/24 01:14:02;;;;;;;65.95;45.42;;;5.70;99.90;;;;;;4987854;28;264274;-75
2022/03/24 01:16:29;;;;;;;66.90;43.28;;;5.70;99.90;;;;;;4972017;28;20117;-74
2022/03/24 01:18:55;;;;;;;65.55;44.03;;;5.60;99.90;;;;;;4985463;28;274908;-75
2022/03/24 01:21:21;;;;;;;64.72;45.63;;;5.60;99.90;;;;;;4989369;28;20068;-75
2022/03/24 01:23:47;;;;;;;69.55;46.47;;;5.60;99.90;;;;;;4984983;28;255272;-74
2022/03/24 01:26:15;;;;;;;67.90;46.53;;;5.60;99.90;;;;;;4970114;28;20049;-75
2022/03/24 01:28:41;;;;;;;66.70;46.78;;;5.60;99.90;;;;;;5004212;28;20065;-75
2022/03/24 01:31:09;;;;;;;69.70;46.83;;;5.60;99.90;;;;;;4976333;28;118878;-75
2022/03/24 01:33:37;;;;;;;61.10;42.95;;;5.50;99.90;;;;;;5000327;28;20068;-75
2022/03/24 01:36:06;;;;;;;60.63;43.38;;;5.50;99.90;;;;;;4970903;28;73442;-74
2022/03/24 01:38:32;;;;;;;71.70;46.17;;;5.40;99.90;;;;;;5003822;28;20042;-75
2022/03/24 01:40:58;;;;;;;66.53;45.13;;;5.40;99.90;;;;;;4985055;28;270515;-75
2022/03/24 01:43:25;;;;;;;66.10;47.00;;;5.30;99.90;;;;;;5013717;28;20499;-75
2022/03/24 01:45:51;;;;;;;68.38;48.28;;;5.30;99.90;;;;;;4964055;28;62225;-75
2022/03/24 01:48:17;;;;;;;74.55;50.33;;;5.30;99.90;;;;;;5001818;28;20061;-75
2022/03/24 01:50:44;;;;;;;79.90;49.67;;;5.30;99.90;;;;;;4977134;28;270906;-75
2022/03/24 01:53:12;;;;;;;65.78;48.05;;;5.30;99.90;;;;;;5006550;28;20144;-74
2022/03/24 01:55:39;;;;;;;70.65;48.13;;;5.30;99.90;;;;;;4967498;28;29200;-75
2022/03/24 01:58:05;;;;;;;74.72;50.08;;;5.30;99.90;;;;;;4997120;28;20045;-74
2022/03/24 02:00:32;;;;;;;81.28;52.40;;;5.20;99.90;;;;;;4964501;28;258554;-74
2022/03/24 02:03:02;;;;;;;76.45;51.10;;;5.20;99.90;;;;;;4992005;28;20069;-74
2022/03/24 02:05:32;;;;;;;79.68;52.05;;;5.20;99.90;;;;;;4975834;28;177855;-74
2022/03/24 02:08:03;;;;;;;76.93;51.88;;;5.20;99.90;;;;;;4984761;28;20084;-74
2022/03/24 02:10:34;;;;;;;67.43;47.80;;;5.20;99.90;;;;;;4985253;28;110062;-74
2022/03/24 02:13:01;;;;;;;79.10;52.70;;;5.20;99.90;;;;;;5030983;28;20048;-74
2022/03/24 02:15:27;;;;;;;72.00;49.25;;;5.10;99.90;;;;;;4960307;28;193032;-74
2022/03/24 02:17:54;;;;;;;74.22;49.78;;;5.10;99.90;;;;;;4996485;28;20160;-74
2022/03/24 02:20:25;;;;;;;76.55;50.92;;;5.10;99.90;;;;;;4974205;28;72438;-75
2022/03/24 02:22:51;;;;;;;70.55;48.75;;;5.00;99.90;;;;;;5021994;28;20046;-75
2022/03/24 02:25:17;;;;;;;75.18;52.10;;;5.00;99.90;;;;;;4983791;28;138702;-75
2022/03/24 02:27:47;;;;;;;70.43;48.30;;;4.90;99.90;;;;;;4995145;28;20056;-75
2022/03/24 02:30:14;;;;;;;79.68;52.83;;;4.90;99.90;;;;;;4972660;28;39263;-74
2022/03/24 02:32:40;;;;;;;79.18;51.10;;;4.90;99.90;;;;;;5013329;28;20411;-74
2022/03/24 02:35:07;;;;;;;75.93;50.50;;;4.80;99.90;;;;;;4963757;28;245370;-74
2022/03/24 02:37:33;;;;;;;71.30;49.20;;;4.80;99.90;;;;;;5001427;28;20428;-74
2022/03/24 02:40:00;;;;;;;75.03;51.63;;;4.80;99.90;;;;;;4963131;28;255248;-74
2022/03/24 02:42:29;;;;;;;78.57;54.92;;;4.80;99.90;;;;;;5014115;28;20068;-74
2022/03/24 02:44:58;;;;;;;77.47;49.95;;;4.80;99.90;;;;;;4967329;28;274030;-74
2022/03/24 02:47:25;;;;;;;82.25;54.53;;;4.80;99.90;;;;;;5006771;28;20066;-75
2022/03/24 02:49:54;;;;;;;87.88;54.97;;;4.70;99.90;;;;;;4969665;28;257817;-74
2022/03/24 02:52:20;;;;;;;85.30;55.30;;;4.70;99.90;;;;;;5029088;28;20033;-74
2022/03/24 02:54:47;;;;;;;76.45;51.03;;;4.70;99.90;;;;;;4971478;28;100906;-74
2022/03/24 02:57:13;;;;;;;74.60;52.45;;;4.70;99.90;;;;;;5015657;28;20129;-75
2022/03/24 02:59:40;;;;;;;74.60;48.88;;;4.70;99.90;;;;;;4964959;28;147349;-74
2022/03/24 03:02:13;;;;;;;77.05;52.83;;;4.60;99.90;;;;;;5013919;28;20046;-74
2022/03/24 03:04:41;;;;;;;83.80;53.30;;;4.60;99.90;;;;;;4969575;28;208474;-74
2022/03/24 03:07:07;;;;;;;81.45;53.58;;;4.60;99.90;;;;;;5000738;28;20046;-75
2022/03/24 03:09:36;;;;;;;72.35;50.55;;;4.60;99.90;;;;;;4967859;28;90471;-74
2022/03/24 03:12:02;;;;;;;77.43;49.88;;;4.60;99.90;;;;;;4995379;28;20052;-74
2022/03/24 03:14:29;;;;;;;79.55;50.83;;;4.50;99.90;;;;;;4966042;28;123047;-74
2022/03/24 03:16:59;;;;;;;75.15;50.83;;;4.40;99.90;;;;;;5004582;28;20046;-74
2022/03/24 03:19:26;;;;;;;73.30;49.08;;;4.40;99.90;;;;;;4980051;28;132655;-74
2022/03/24 03:21:53;;;;;;;86.03;53.70;;;4.40;99.90;;;;;;5015732;28;20041;-74
2022/03/24 03:24:21;;;;;;;73.68;47.20;;;4.40;99.90;;;;;;4987530;28;36012;-75
2022/03/24 03:26:48;;;;;;;76.28;50.95;;;4.30;99.90;;;;;;4996773;28;20266;-74
2022/03/24 03:29:16;;;;;;;75.63;51.15;;;4.30;99.90;;;;;;5020758;28;239425;-74
2022/03/24 03:31:42;;;;;;;88.90;54.53;;;4.30;99.90;;;;;;5001559;28;20039;-74
2022/03/24 03:34:08;;;;;;;92.97;56.00;;;4.30;99.90;;;;;;4998548;28;271204;-74
2022/03/24 03:36:37;;;;;;;96.05;62.38;;;4.20;99.90;;;;;;4983116;28;20046;-74
2022/03/24 03:39:07;;;;;;;79.45;53.30;;;4.30;99.90;;;;;;4990594;28;253239;-74
2022/03/24 03:41:35;;;;;;;89.80;58.28;;;4.30;99.90;;;;;;4955750;28;20053;-74
2022/03/24 03:44:02;;;;;;;87.00;58.72;;;4.30;99.90;;;;;;4971111;28;263276;-74
2022/03/24 03:46:29;;;;;;;90.60;55.65;;;4.20;99.90;;;;;;4969341;28;20052;-74
2022/03/24 03:48:56;;;;;;;86.60;56.47;;;4.30;99.90;;;;;;4985872;28;274332;-73
2022/03/24 03:51:22;;;;;;;95.28;60.55;;;4.20;99.90;;;;;;4988016;28;20144;-73
2022/03/24 03:53:48;;;;;;;85.85;55.92;;;4.20;99.90;;;;;;4972880;28;261034;-73
2022/03/24 03:56:15;;;;;;;84.00;54.47;;;4.20;99.90;;;;;;4995373;28;20057;-73
2022/03/24 03:58:41;;;;;;;92.30;58.53;;;4.10;99.90;;;;;;5016090;28;20050;-73
2022/03/24 04:01:08;;;;;;;93.15;58.03;;;4.10;99.90;;;;;;4975942;28;47786;-73
2022/03/24 04:03:37;;;;;;;82.07;54.55;;;4.10;99.90;;;;;;5009169;28;20305;-73
2022/03/24 04:06:11;;;;;;;90.72;55.85;;;4.10;99.90;;;;;;4963313;28;180199;-73
2022/03/24 04:08:40;;;;;;;88.35;54.80;;;4.00;99.90;;;;;;5000981;28;20065;-73
2022/03/24 04:11:07;;;;;;;84.70;53.85;;;4.00;99.90;;;;;;4964436;28;171911;-73
2022/03/24 04:13:34;;;;;;;90.32;57.65;;;4.00;99.90;;;;;;5029177;28;20487;-73
2022/03/24 04:16:01;;;;;;;81.85;54.08;;;4.00;99.90;;;;;;4965385;28;36148;-74
2022/03/24 04:18:28;;;;;;;80.15;52.03;;;3.90;99.90;;;;;;4986414;28;20060;-74
2022/03/24 04:20:54;;;;;;;91.30;55.88;;;3.90;99.90;;;;;;4966597;28;278199;-73
2022/03/24 04:23:21;;;;;;;78.07;51.40;;;3.90;99.90;;;;;;5008262;28;20411;-74
2022/03/24 04:25:48;;;;;;;77.75;52.40;;;3.90;99.90;;;;;;4982276;28;265474;-73
2022/03/24 04:28:14;;;;;;;93.80;55.55;;;3.80;99.90;;;;;;5011188;28;20042;-73
2022/03/24 04:30:42;;;;;;;84.68;55.08;;;3.80;99.90;;;;;;4977459;28;63735;-73
2022/03/24 04:33:09;;;;;;;84.10;53.95;;;3.80;99.90;;;;;;5021188;28;20048;-74
2022/03/24 04:35:36;;;;;;;84.82;52.38;;;3.70;99.90;;;;;;4980146;28;52006;-74
2022/03/24 04:38:04;;;;;;;85.53;52.08;;;3.70;99.90;;;;;;5018195;28;20053;-74
2022/03/24 04:40:30;;;;;;;83.80;52.97;;;3.70;99.90;;;;;;4974703;28;130722;-74
2022/03/24 04:42:57;;;;;;;84.63;55.17;;;3.70;99.90;;;;;;5010112;28;20089;-74
2022/03/24 04:45:24;;;;;;;86.50;53.33;;;3.60;99.90;;;;;;4968787;28;230102;-74
2022/03/24 04:47:51;;;;;;;75.10;49.75;;;3.60;99.90;;;;;;4997923;28;20562;-73
2022/03/24 04:50:20;;;;;;;84.97;54.80;;;3.60;99.90;;;;;;4974583;28;265228;-73
2022/03/24 04:52:46;;;;;;;83.05;53.63;;;3.60;99.90;;;;;;5021667;28;20053;-73
2022/03/24 04:55:13;;;;;;;82.72;54.25;;;3.60;99.90;;;;;;4978648;28;271073;-73
2022/03/24 04:57:39;;;;;;;82.97;53.95;;;3.50;99.90;;;;;;5004140;28;20057;-73
2022/03/24 05:00:06;;;;;;;76.93;50.20;;;3.50;99.90;;;;;;4988765;28;164680;-73
2022/03/24 05:02:32;;;;;;;81.85;51.95;;;3.50;99.90;;;;;;5007594;28;20552;-73
2022/03/24 05:04:58;;;;;;;83.50;52.45;;;3.50;99.90;;;;;;4971567;28;212447;-73
2022/03/24 05:07:26;;;;;;;84.18;54.20;;;3.40;99.90;;;;;;5010555;28;20053;-72
2022/03/24 05:09:55;;;;;;;85.03;54.20;;;3.40;99.90;;;;;;4966709;28;251362;-72
2022/03/24 05:12:21;;;;;;;88.22;56.90;;;3.40;99.90;;;;;;5013022;28;20042;-74
2022/03/24 05:14:50;;;;;;;88.85;56.30;;;3.40;99.90;;;;;;4982736;28;160553;-73
2022/03/24 05:17:17;;;;;;;89.07;58.08;;;3.40;99.90;;;;;;5008615;28;20061;-73
2022/03/24 05:19:48;;;;;;;86.15;54.90;;;3.40;99.90;;;;;;4969834;28;269586;-74
2022/03/24 05:22:16;;;;;;;110.70;65.50;;;3.40;99.90;;;;;;5002145;28;20061;-73
2022/03/24 05:24:43;;;;;;;106.05;63.72;;;3.40;99.90;;;;;;4968010;28;124139;-73
2022/03/24 05:27:10;;;;;;;100.47;62.35;;;3.50;99.90;;;;;;4996803;28;20057;-73
2022/03/24 05:29:36;;;;;;;91.00;58.20;;;3.50;99.90;;;;;;4972572;28;258829;-72
2022/03/24 05:32:04;;;;;;;91.50;55.95;;;3.50;99.90;;;;;;5017705;28;20046;-74
2022/03/24 05:34:31;;;;;;;92.22;58.55;;;3.50;99.90;;;;;;5000932;28;197949;-73
2022/03/24 05:36:58;;;;;;;99.40;58.63;;;3.40;99.90;;;;;;5003211;28;20518;-72
2022/03/24 05:39:24;;;;;;;99.45;58.83;;;3.40;99.90;;;;;;4986392;28;152679;-73
2022/03/24 05:41:50;;;;;;;91.88;57.65;;;3.40;99.90;;;;;;5002668;28;20068;-73
2022/03/24 05:44:16;;;;;;;97.07;58.80;;;3.40;99.90;;;;;;4991090;28;260001;-73
2022/03/24 05:46:44;;;;;;;98.22;58.30;;;3.40;99.90;;;;;;4967064;28;20554;-73
2022/03/24 05:49:15;;;;;;;97.25;59.38;;;3.40;99.90;;;;;;4990040;28;253967;-73
2022/03/24 05:51:43;;;;;;;97.43;56.67;;;3.40;99.90;;;;;;4978580;28;20450;-73
2022/03/24 05:54:10;;;;;;;92.63;55.60;;;3.40;99.90;;;;;;4992830;28;261354;-72
2022/03/24 05:56:36;;;;;;;99.85;62.08;;;3.40;99.90;;;;;;4997556;28;20495;-73
2022/03/24 05:59:03;;;;;;;99.33;61.70;;;3.40;99.90;;;;;;5003892;28;265726;-73
2022/03/24 06:01:29;;;;;;;105.35;63.17;;;3.50;99.90;;;;;;4982432;28;20053;-73
2022/03/24 06:03:59;;;;;;;98.65;61.90;;;3.50;99.90;;;;;;4991022;28;259236;-72
2022/03/24 06:06:28;;;;;;;94.82;59.95;;;3.50;99.90;;;;;;4979774;28;22408;-73
2022/03/24 06:08:57;;;;;;;90.28;59.22;;;3.60;99.90;;;;;;4986829;28;270313;-72
2022/03/24 06:11:24;;;;;;;96.95;59.67;;;3.60;99.90;;;;;;4961682;28;20411;-73
2022/03/24 06:13:50;;;;;;;103.03;64.05;;;3.60;99.90;;;;;;4991835;28;273647;-74
2022/03/24 06:16:17;;;;;;;103.40;61.28;;;3.60;99.90;;;;;;4997483;28;20046;-74
2022/03/24 06:18:43;;;;;;;91.38;58.03;;;3.70;99.90;;;;;;5000623;28;20050;-74
2022/03/24 06:21:09;;;;;;;92.80;58.03;;;3.70;99.90;;;;;;4949463;28;115933;-74
2022/03/24 06:23:36;;;;;;;98.53;61.15;;;3.80;99.90;;;;;;5001608;28;20061;-74
2022/03/24 06:26:03;;;;;;;100.18;61.00;;;3.80;99.90;;;;;;4958906;28;232501;-74
2022/03/24 06:28:29;;;;;;;102.82;62.10;;;3.80;99.90;;;;;;4997504;28;20057;-74
2022/03/24 06:30:55;;;;;;;97.97;60.10;;;3.90;99.90;;;;;;4966552;28;164303;-74
2022/03/24 06:33:21;;;;;;;116.63;67.88;;;3.90;99.90;;;;;;5005833;28;20057;-74
2022/03/24 06:35:48;;;;;;;104.55;64.88;;;4.00;99.90;;;;;;4972574;28;275903;-73
2022/03/24 06:38:16;;;;;;;115.30;70.10;;;4.10;99.90;;;;;;5003390;28;20054;-73
2022/03/24 06:40:42;;;;;;;112.07;68.68;;;4.20;99.90;;;;;;4974263;28;40552;-73
2022/03/24 06:43:09;;;;;;;104.97;65.25;;;4.30;99.90;;;;;;4985604;28;20184;-73
2022/03/24 06:45:37;;;;;;;107.40;64.20;;;4.30;99.90;;;;;;4965778;28;214896;-74
2022/03/24 06:48:08;;;;;;;114.95;70.32;;;4.40;99.90;;;;;;4999162;28;20050;-74
2022/03/24 06:50:35;;;;;;;129.18;71.78;;;4.50;99.90;;;;;;4971310;28;60025;-74
2022/03/24 06:53:03;;;;;;;116.30;71.35;;;4.60;99.90;;;;;;5007378;28;20052;-74
2022/03/24 06:55:30;;;;;;;110.50;68.32;;;4.90;99.90;;;;;;4968320;28;196442;-76
2022/03/24 06:57:56;;;;;;;105.30;64.55;;;5.00;99.90;;;;;;5011403;28;20065;-75
2022/03/24 07:00:23;;;;;;;111.55;68.55;;;5.00;99.90;;;;;;4970996;28;194364;-74
2022/03/24 07:02:49;;;;;;;106.13;64.55;;;5.00;99.90;;;;;;5007088;28;20060;-75
2022/03/24 07:05:15;;;;;;;105.97;65.32;;;5.10;99.90;;;;;;4950654;28;158843;-74
2022/03/24 07:07:43;;;;;;;104.63;66.75;;;5.20;99.90;;;;;;4994154;28;20057;-73
2022/03/24 07:10:09;;;;;;;112.45;70.22;;;5.30;99.90;;;;;;4964504;28;151226;-74
2022/03/24 07:12:36;;;;;;;111.55;72.07;;;5.30;99.90;;;;;;4995751;28;20049;-74
2022/03/24 07:15:03;;;;;;;109.20;70.80;;;5.50;99.90;;;;;;4981128;28;267924;-74
2022/03/24 07:17:30;;;;;;;117.10;72.18;;;5.60;99.90;;;;;;5008376;28;20419;-74
2022/03/24 07:19:56;;;;;;;110.15;71.78;;;5.70;99.90;;;;;;4956719;28;190849;-74
2022/03/24 07:22:22;;;;;;;101.70;69.55;;;5.80;99.90;;;;;;5004474;28;20057;-75
2022/03/24 07:24:49;;;;;;;108.30;69.13;;;5.90;99.90;;;;;;4964240;28;231438;-74
2022/03/24 07:27:16;;;;;;;104.60;68.68;;;6.00;99.90;;;;;;5014766;28;20069;-73
2022/03/24 07:29:42;;;;;;;112.28;69.38;;;6.20;99.90;;;;;;4973739;28;61205;-75
2022/03/24 07:32:09;;;;;;;102.85;68.55;;;6.30;99.90;;;;;;5009846;28;20065;-74
2022/03/24 07:34:36;;;;;;;100.25;66.85;;;6.40;99.90;;;;;;4969106;28;299550;-74
2022/03/24 07:37:04;;;;;;;103.72;66.63;;;6.50;99.90;;;;;;4999918;28;20052;-74
2022/03/24 07:39:31;;;;;;;98.80;68.07;;;6.70;99.90;;;;;;4969061;28;274108;-75
2022/03/24 07:41:58;;;;;;;97.00;66.57;;;7.40;99.90;;;;;;4969788;28;20046;-74
2022/03/24 07:44:24;;;;;;;89.45;61.67;;;8.20;99.90;;;;;;4969890;28;257201;-74
2022/03/24 07:46:50;;;;;;;78.97;59.22;;;8.90;99.90;;;;;;4998016;28;20527;-75
2022/03/24 07:49:16;;;;;;;72.07;55.03;;;9.60;99.90;;;;;;4997474;28;259530;-74
2022/03/24 07:51:43;;;;;;;71.85;54.45;;;10.30;99.90;;;;;;4985411;28;20438;-74
2022/03/24 07:54:10;;;;;;;69.15;52.10;;;10.90;99.90;;;;;;4990459;28;256156;-75
2022/03/24 07:56:37;;;;;;;64.57;51.22;;;11.50;99.90;;;;;;4985189;28;20541;-75
2022/03/24 07:59:05;;;;;;;65.40;50.60;;;12.10;99.90;;;;;;4990222;28;274324;-74
2022/03/24 08:01:33;;;;;;;65.78;50.50;;;12.60;99.90;;;;;;4959458;28;20046;-74
2022/03/24 08:04:01;;;;;;;62.88;47.67;;;13.20;99.90;;;;;;4980345;28;252152;-74
2022/03/24 08:06:29;;;;;;;60.08;47.58;;;13.60;99.90;;;;;;4987910;28;20503;-74
2022/03/24 08:08:56;;;;;;;55.90;46.60;;;13.90;99.90;;;;;;5023054;28;262050;-74
2022/03/24 08:11:22;;;;;;;59.35;44.60;;;14.00;99.90;;;;;;4978080;28;20038;-74
2022/03/24 08:13:54;;;;;;;61.10;44.97;;;14.40;99.90;;;;;;4987460;28;264378;-74
2022/03/24 08:16:21;;;;;;;58.33;45.92;;;14.80;99.90;;;;;;5000270;28;20050;-75
2022/03/24 08:18:47;;;;;;;50.60;42.92;;;15.20;99.90;;;;;;4988892;28;256868;-75
2022/03/24 08:21:13;;;;;;;51.45;42.70;;;15.40;99.90;;;;;;5001742;28;20053;-75
2022/03/24 08:23:39;;;;;;;54.78;41.72;;;15.40;99.90;;;;;;5005787;28;20053;-75
2022/03/24 08:26:06;;;;;;;54.13;41.45;;;15.30;99.90;;;;;;4994216;28;251585;-75
2022/03/24 08:28:32;;;;;;;47.40;37.72;;;15.50;99.90;;;;;;5003117;28;20050;-75
2022/03/24 08:30:59;;;;;;;45.63;36.33;;;16.00;99.90;;;;;;4976874;28;271537;-75
2022/03/24 08:33:25;;;;;;;48.25;35.30;;;16.30;98.80;;;;;;5034597;28;20407;-75
2022/03/24 08:35:51;;;;;;;45.42;33.80;;;16.50;96.80;;;;;;4975373;28;266623;-75
2022/03/24 08:38:17;;;;;;;43.60;34.03;;;16.60;95.10;;;;;;5031904;28;20061;-75
2022/03/24 08:40:43;;;;;;;41.42;32.10;;;16.80;95.10;;;;;;4959018;28;189512;-75
2022/03/24 08:43:09;;;;;;;41.15;31.65;;;16.90;92.50;;;;;;4995025;28;20049;-74
2022/03/24 08:45:37;;;;;;;47.50;34.53;;;16.80;90.10;;;;;;4979209;28;267503;-75
2022/03/24 08:48:06;;;;;;;40.42;31.48;;;17.20;90.30;;;;;;5000020;28;20440;-74
2022/03/24 08:50:34;;;;;;;47.13;31.25;;;17.20;81.70;;;;;;4969606;28;148929;-75
2022/03/24 08:53:03;;;;;;;41.80;32.35;;;17.40;81.10;;;;;;5001242;28;20053;-75
2022/03/24 08:55:29;;;;;;;41.75;33.05;;;17.60;81.00;;;;;;4959327;28;235269;-75
2022/03/24 08:57:55;;;;;;;44.72;32.70;;;18.00;80.90;;;;;;4996543;28;20050;-78
2022/03/24 09:00:23;;;;;;;42.20;32.38;;;18.10;79.10;;;;;;4964712;28;266800;-76
2022/03/24 09:02:51;;;;;;;44.67;33.40;;;18.50;78.40;;;;;;5011771;28;20053;-76
2022/03/24 09:05:18;;;;;;;47.25;33.22;;;18.60;73.30;;;;;;4952249;28;206660;-75
2022/03/24 09:07:45;;;;;;;42.70;32.47;;;18.70;68.10;;;;;;5013552;28;20054;-75
2022/03/24 09:10:13;;;;;;;43.15;31.85;;;18.50;69.00;;;;;;4963235;28;212495;-76
2022/03/24 09:12:40;;;;;;;40.67;33.83;;;18.60;69.30;;;;;;4994611;28;20499;-76
2022/03/24 09:15:08;;;;;;;50.53;32.55;;;18.90;69.70;;;;;;4967381;28;255966;-78
2022/03/24 09:17:36;;;;;;;40.20;30.40;;;19.40;65.60;;;;;;5004722;28;20068;-76
2022/03/24 09:20:04;;;;;;;38.58;31.83;;;19.10;64.30;;;;;;4962056;28;265351;-76
2022/03/24 09:22:30;;;;;;;39.17;29.40;;;19.20;62.80;;;;;;4997440;28;20065;-78
2022/03/24 09:24:57;;;;;;;38.03;29.92;;;19.40;63.10;;;;;;4967956;28;256820;-76
2022/03/24 09:27:23;;;;;;;37.47;29.20;;;19.60;59.40;;;;;;4996963;28;20054;-75
2022/03/24 09:29:49;;;;;;;39.75;29.08;;;19.80;58.70;;;;;;4966276;28;199650;-74
2022/03/24 09:32:19;;;;;;;40.92;28.75;;;20.00;58.30;;;;;;5007797;28;20046;-75
2022/03/24 09:34:45;;;;;;;39.30;27.77;;;20.40;57.80;;;;;;4965461;28;272442;-76
2022/03/24 09:37:13;;;;;;;41.22;29.92;;;20.70;57.30;;;;;;4991700;28;20061;-76
2022/03/24 09:39:40;;;;;;;44.88;30.95;;;21.00;55.90;;;;;;4972148;28;266450;-75
2022/03/24 09:42:06;;;;;;;37.00;29.75;;;21.00;54.80;;;;;;5024851;28;20061;-73
2022/03/24 09:44:33;;;;;;;37.70;30.30;;;21.00;55.40;;;;;;4965599;28;267404;-74
2022/03/24 09:46:59;;;;;;;43.28;31.13;;;21.30;55.10;;;;;;4992427;28;20504;-75
2022/03/24 09:49:25;;;;;;;39.08;30.92;;;21.70;54.90;;;;;;4965972;28;203851;-77
2022/03/24 09:51:51;;;;;;;37.45;30.77;;;22.10;52.60;;;;;;5018747;28;20049;-75
2022/03/24 09:54:18;;;;;;;39.25;31.00;;;22.20;54.20;;;;;;4991578;28;254214;-75
2022/03/24 09:56:44;;;;;;;39.60;32.20;;;22.30;53.50;;;;;;4998260;28;20443;-75
2022/03/24 09:59:10;;;;;;;40.22;31.52;;;22.40;52.40;;;;;;4990550;28;273000;-77
2022/03/24 10:01:39;;;;;;;39.63;32.30;;;22.50;51.00;;;;;;4964111;28;20052;-76
2022/03/24 10:04:11;;;;;;;38.97;32.20;;;22.40;51.00;;;;;;4970103;28;248003;-75
2022/03/24 10:06:39;;;;;;;38.88;30.15;;;22.40;49.60;;;;;;4979708;28;20112;-75
2022/03/24 10:09:07;;;;;;;39.78;31.75;;;22.40;51.50;;;;;;4992093;28;276014;-76
2022/03/24 10:11:35;;;;;;;36.95;30.67;;;22.80;51.20;;;;;;4984555;28;20041;-76
2022/03/24 10:14:02;;;;;;;38.33;30.77;;;23.00;50.70;;;;;;5002951;28;264346;-75
2022/03/24 10:16:35;;;;;;;39.88;31.83;;;23.40;50.00;;;;;;4987130;28;20101;-75
2022/03/24 10:19:07;;;;;;;37.67;29.13;;;23.50;49.30;;;;;;4990448;28;269740;-75
2022/03/24 10:21:36;;;;;;;37.40;29.00;;;23.60;47.70;;;;;;4985199;28;20046;-75
2022/03/24 10:24:17;;;;;;;36.63;29.77;;;23.20;46.20;;;;;;4992750;28;251575;-76
2022/03/24 10:26:48;;;;;;;34.95;29.15;;;22.90;44.80;;;;;;4949861;28;20159;-75
2022/03/24 10:29:20;;;;;;;37.75;30.23;;;23.10;45.60;;;;;;4995292;28;255233;-76
2022/03/24 10:31:52;;;;;;;37.72;30.73;;;23.50;45.00;;;;;;4988205;28;20045;-75
2022/03/24 10:34:27;;;;;;;41.88;30.77;;;23.70;44.20;;;;;;4988539;28;256512;-76
2022/03/24 10:36:53;;;;;;;35.90;27.77;;;24.10;43.90;;;;;;4982795;28;20053;-75
2022/03/24 10:39:24;;;;;;;36.08;29.13;;;23.50;40.90;;;;;;4991664;28;273591;-71
2022/03/24 10:41:50;;;;;;;35.80;29.92;;;23.20;42.50;;;;;;5020710;28;20406;-75
2022/03/24 10:44:16;;;;;;;33.38;29.10;;;23.40;43.70;;;;;;4996620;28;139120;-76
2022/03/24 10:46:43;;;;;;;39.25;29.48;;;23.70;43.30;;;;;;4966524;28;21634;-77
2022/03/24 10:49:25;;;;;;;32.97;28.15;;;23.30;40.50;;;;;;4992618;28;257381;-76
2022/03/24 10:51:53;;;;;;;38.92;29.30;;;23.00;42.70;;;;;;4979430;28;20236;-76
2022/03/24 10:54:25;;;;;;;38.45;28.45;;;23.50;42.00;;;;;;4986273;28;257650;-76
2022/03/24 10:57:08;;;;;;;32.30;28.30;;;24.00;42.50;;;;;;4991273;28;20037;-75
2022/03/24 10:59:47;;;;;;;36.70;28.13;;;24.70;40.90;;;;;;4967880;28;98351;-76
2022/03/24 11:02:15;;;;;;;38.97;26.63;;;24.50;39.70;;;;;;5001887;28;20057;-74
2022/03/24 11:04:43;;;;;;;35.72;27.10;;;24.70;40.10;;;;;;4955187;28;210678;-75
2022/03/24 11:07:09;;;;;;;33.85;25.13;;;25.00;39.50;;;;;;5028331;28;20054;-77
2022/03/24 11:09:35;;;;;;;34.78;26.27;;;25.20;38.30;;;;;;4972484;28;125823;-78
2022/03/24 11:12:36;;;;;;;31.73;24.35;;;25.30;39.00;;;;;;5008144;28;20065;-76
2022/03/24 11:15:05;;;;;;;31.35;24.45;;;25.60;36.80;;;;;;4974334;28;259174;-81
2022/03/24 11:17:33;;;;;;;31.65;22.98;;;25.40;37.40;;;;;;5014200;28;20065;-76
2022/03/24 11:20:19;;;;;;;31.25;23.35;;;25.80;38.90;;;;;;4970529;28;268474;-76
2022/03/24 11:22:56;;;;;;;31.08;23.90;;;26.50;37.20;;;;;;5007677;28;20065;-78
2022/03/24 11:25:24;;;;;;;27.17;21.15;;;26.60;37.10;;;;;;4965065;28;83599;-75
2022/03/24 11:27:51;;;;;;;27.38;20.33;;;26.60;35.50;;;;;;4995715;28;20459;-75
2022/03/24 11:30:21;;;;;;;27.42;19.13;;;27.00;35.30;;;;;;4969310;28;96238;-75
2022/03/24 11:32:49;;;;;;;;;;;27.30;34.60;;;;;;5006990;28;20060;-76
2022/03/24 11:35:16;;;;;;;31.55;21.70;;;27.70;33.90;;;;;;4971158;28;255484;-76
2022/03/24 11:37:43;;;;;;;27.15;21.00;;;27.60;34.40;;;;;;4996276;28;20076;-76
2022/03/24 11:40:37;;;;;;;30.50;22.90;;;27.10;33.50;;;;;;4981127;28;261394;-77
2022/03/24 11:43:19;;;;;;;31.70;22.08;;;26.90;34.20;;;;;;5004721;28;20057;-75
2022/03/24 11:45:58;;;;;;;25.70;21.00;;;26.90;32.60;;;;;;4973436;28;257514;-75
2022/03/24 11:48:38;;;;;;;33.22;22.05;;;27.00;34.20;;;;;;5009048;28;20053;-80
2022/03/24 11:51:14;;;;;;;30.97;22.40;;;27.40;33.30;;;;;;4981038;28;273743;-74
2022/03/24 11:53:41;;;;;;;28.50;21.15;;;27.70;34.00;;;;;;5006174;28;20046;-74
2022/03/24 11:56:10;;;;;;;29.63;23.33;;;28.00;34.00;;;;;;4974802;28;263443;-76
2022/03/24 11:58:44;;;;;;;30.88;25.25;;;28.10;33.30;;;;;;5031023;28;20048;-75
2022/03/24 12:01:19;;;;;;;31.02;23.05;;;28.00;33.40;;;;;;4943214;28;81299;-77
2022/03/24 12:03:57;;;;;;;29.55;23.20;;;27.80;33.90;;;;;;5011170;28;20084;-75
2022/03/24 12:06:45;;;;;;;29.45;22.92;;;28.10;34.50;;;;;;4949399;28;186243;-75
2022/03/24 12:09:21;;;;;;;30.38;22.92;;;28.00;33.70;;;;;;4980731;28;260793;-75
2022/03/24 12:11:51;;;;;;;31.27;23.25;;;28.40;33.70;;;;;;4942436;28;20050;-75
2022/03/24 12:14:36;;;;;;;33.55;24.65;;;28.40;34.00;;;;;;4995757;28;266124;-71
2022/03/24 12:17:19;;;;;;;35.58;26.23;;;28.40;32.80;;;;;;4983073;28;20535;-77
2022/03/24 12:19:50;;;;;;;32.63;25.50;;;27.00;33.70;;;;;;4973513;28;256697;-75
2022/03/24 12:22:25;;;;;;;29.80;25.25;;;26.90;35.00;;;;;;5011662;28;20429;-75
2022/03/24 12:25:11;;;;;;;28.50;23.92;;;27.30;33.20;;;;;;4971987;28;103390;-75
2022/03/24 12:28:01;;;;;;;28.35;23.08;;;26.90;35.30;;;;;;4986768;28;20061;-75
2022/03/24 12:30:40;;;;;;;26.80;22.93;;;27.60;35.90;;;;;;4981780;28;263008;-75
2022/03/24 12:33:12;;;;;;;29.05;23.75;;;27.80;35.10;;;;;;5007382;28;20050;-74